createdAt,value
2022-08-10T00:02:27.816Z,73.19
2022-08-10T00:07:30.430Z,73.34
2022-08-10T00:12:54.289Z,73.73
2022-08-10T00:17:57.842Z,73.90
2022-08-10T00:23:00.281Z,74.34
2022-08-10T00:28:04.187Z,74.55
2022-08-10T00:33:06.280Z,75.14
2022-08-10T00:38:09.034Z,76.07
2022-08-10T00:43:11.043Z,76.43
2022-08-10T00:48:12.990Z,76.92
2022-08-10T00:53:15.168Z,77.65
2022-08-10T00:58:17.219Z,77.62
2022-08-10T01:04:42.070Z,77.58
2022-08-10T01:08:52.136Z,78.07
2022-08-10T01:14:06.065Z,78.13
2022-08-10T01:19:40.425Z,78.32
2022-08-10T01:25:00.777Z,78.27
2022-08-10T01:30:11.515Z,78.40
2022-08-10T01:35:16.593Z,78.60
2022-08-10T01:40:22.694Z,79.06
2022-08-10T01:45:25.419Z,79.39
2022-08-10T01:50:31.950Z,79.75
2022-08-10T01:55:34.892Z,79.57
2022-08-10T02:00:39.405Z,79.85
2022-08-10T02:05:43.463Z,80.40
2022-08-10T02:10:46.839Z,81.01
2022-08-10T02:16:01.848Z,81.92
2022-08-10T02:21:05.259Z,82.72
2022-08-10T02:26:09.758Z,82.62
2022-08-10T02:31:14.987Z,82.51
2022-08-10T02:36:17.831Z,82.94
2022-08-10T02:42:18.794Z,83.22
2022-08-10T02:46:59.952Z,83.84
2022-08-10T02:52:09.201Z,84.43
2022-08-10T02:57:16.297Z,84.54
2022-08-10T03:02:38.878Z,84.77
2022-08-10T03:07:50.211Z,84.02
2022-08-10T03:13:00.158Z,83.37
2022-08-10T03:18:03.349Z,83.96
2022-08-10T03:23:10.247Z,84.92
2022-08-10T03:28:20.385Z,85.73
2022-08-10T03:33:26.648Z,85.93
2022-08-10T03:38:28.912Z,85.66
2022-08-10T03:43:31.196Z,86.37
2022-08-10T03:48:49.001Z,86.68
2022-08-10T03:54:05.734Z,86.75
2022-08-10T03:59:12.288Z,86.54
2022-08-10T04:04:17.811Z,86.85
2022-08-10T04:09:43.235Z,87.37
2022-08-10T04:14:50.886Z,87.31
2022-08-10T04:19:56.141Z,87.73
2022-08-10T04:25:00.590Z,86.55
2022-08-10T04:30:02.940Z,84.37
2022-08-10T04:35:04.917Z,82.21
2022-08-10T04:40:24.887Z,80.58
2022-08-10T04:45:47.417Z,79.09
2022-08-10T04:50:52.816Z,77.90
2022-08-10T04:55:55.857Z,77.46
2022-08-10T05:00:57.924Z,77.15
2022-08-10T05:05:59.998Z,76.48
2022-08-10T05:11:03.656Z,75.79
2022-08-10T05:16:05.774Z,75.24
2022-08-10T05:21:09.316Z,75.08
2022-08-10T05:26:11.503Z,75.12
2022-08-10T05:31:18.918Z,74.88
2022-08-10T05:36:34.345Z,74.41
2022-08-10T05:41:41.499Z,73.36
2022-08-10T05:46:46.878Z,73.52
2022-08-10T05:51:49.112Z,72.99
2022-08-10T05:56:54.259Z,73.15
2022-08-10T06:02:32.732Z,72.28
2022-08-10T06:07:28.676Z,72.03
2022-08-10T06:12:32.219Z,71.97
2022-08-10T06:17:38.268Z,71.13
2022-08-10T06:22:40.361Z,70.63
2022-08-10T06:27:43.509Z,70.80
2022-08-10T06:32:45.880Z,69.96
2022-08-10T06:37:50.699Z,69.23
2022-08-10T06:42:54.727Z,69.19
2022-08-10T06:48:04.161Z,68.88
2022-08-10T06:53:13.206Z,68.71
2022-08-10T06:58:15.397Z,68.37
2022-08-10T07:03:19.033Z,67.85
2022-08-10T07:08:28.156Z,66.85
2022-08-10T07:14:15.428Z,66.50
2022-08-10T07:18:58.790Z,66.06
2022-08-10T07:24:07.611Z,65.95
2022-08-10T07:29:26.577Z,65.38
2022-08-10T07:34:35.628Z,64.70
2022-08-10T07:39:58.299Z,64.26
2022-08-10T07:45:05.187Z,64.07
2022-08-10T07:50:21.981Z,63.51
2022-08-10T07:56:01.868Z,62.55
2022-08-10T08:00:58.441Z,62.36
2022-08-10T08:06:11.495Z,60.91
2022-08-10T08:11:25.498Z,60.53
2022-08-10T08:16:29.408Z,60.30
2022-08-10T08:24:07.375Z,59.07
2022-08-10T08:26:58.189Z,58.51
2022-08-10T08:32:06.348Z,57.21
2022-08-10T08:38:32.171Z,57.38
2022-08-10T08:43:00.898Z,57.71
2022-08-10T08:48:29.972Z,57.81
2022-08-10T08:54:02.284Z,56.18
2022-08-10T08:59:11.038Z,55.27
2022-08-10T09:04:54.156Z,54.66
2022-08-10T09:10:26.158Z,52.60
2022-08-10T09:16:09.408Z,51.22
2022-08-10T09:21:58.673Z,51.32
2022-08-10T09:27:29.570Z,50.81
2022-08-10T09:36:14.151Z,48.40
2022-08-10T09:38:55.884Z,49.30
2022-08-10T09:50:58.991Z,48.54
2022-08-10T09:56:19.070Z,48.80
2022-08-10T10:02:03.290Z,47.36
2022-08-10T10:07:16.295Z,48.03
2022-08-10T10:12:29.070Z,47.23
2022-08-10T10:17:46.921Z,46.99
2022-08-10T10:23:10.477Z,46.49
2022-08-10T10:29:19.585Z,45.80
2022-08-10T10:34:33.811Z,43.88
2022-08-10T10:39:44.647Z,44.05
2022-08-10T10:44:46.623Z,43.47
2022-08-10T10:50:00.606Z,43.34
2022-08-10T10:55:34.670Z,41.98
2022-08-10T11:01:03.941Z,42.67
2022-08-10T11:06:39.739Z,41.93
2022-08-10T11:12:01.673Z,41.57
2022-08-10T11:17:46.211Z,41.21
2022-08-10T11:23:12.513Z,41.94
2022-08-10T11:28:16.471Z,40.61
2022-08-10T11:34:48.870Z,40.22
2022-08-10T11:39:49.683Z,40.39
2022-08-10T11:45:05.730Z,41.08
2022-08-10T11:50:10.700Z,40.83
2022-08-10T11:55:20.740Z,39.60
2022-08-10T12:00:24.627Z,39.75
2022-08-10T12:05:46.588Z,39.07
2022-08-10T12:10:57.069Z,39.85
2022-08-10T12:16:11.672Z,39.78
2022-08-10T12:21:55.619Z,39.41
2022-08-10T12:27:16.298Z,38.76
2022-08-10T12:32:36.648Z,38.75
2022-08-10T12:37:51.256Z,38.07
2022-08-10T12:44:04.408Z,38.16
2022-08-10T12:48:43.848Z,37.88
2022-08-10T12:53:51.657Z,37.46
2022-08-10T12:58:59.808Z,36.56
2022-08-10T13:04:21.025Z,37.55
2022-08-10T13:09:26.947Z,37.58
2022-08-10T13:14:38.283Z,37.02
2022-08-10T13:19:55.468Z,36.78
2022-08-10T13:25:02.219Z,35.85
2022-08-10T13:30:07.130Z,36.59
2022-08-10T13:35:20.772Z,36.53
2022-08-10T13:40:23.854Z,35.62
2022-08-10T13:45:26.402Z,35.68
2022-08-10T13:50:35.719Z,35.98
2022-08-10T13:55:53.809Z,36.65
2022-08-10T14:01:00.488Z,36.66
2022-08-10T14:06:07.452Z,36.28
2022-08-10T14:11:13.629Z,35.85
2022-08-10T14:16:17.293Z,35.26
2022-08-10T14:21:20.478Z,35.76
2022-08-10T14:26:26.438Z,36.38
2022-08-10T14:31:34.344Z,36.67
2022-08-10T14:36:54.809Z,36.67
2022-08-10T14:42:03.105Z,36.52
2022-08-10T14:47:53.359Z,36.41
2022-08-10T14:52:43.990Z,35.54
2022-08-10T14:58:19.481Z,34.78
2022-08-10T15:03:58.026Z,35.46
2022-08-10T15:08:37.865Z,35.89
2022-08-10T15:14:40.961Z,35.69
2022-08-10T15:20:01.427Z,35.55
2022-08-10T15:24:57.404Z,35.71
2022-08-10T15:30:00.035Z,35.45
2022-08-10T15:35:25.692Z,35.69
2022-08-10T15:40:32.447Z,35.87
2022-08-10T15:45:45.714Z,35.51
2022-08-10T15:51:06.001Z,35.69
2022-08-10T15:56:28.159Z,35.54
2022-08-10T16:02:13.373Z,36.11
2022-08-10T16:07:15.445Z,36.10
2022-08-10T16:12:34.086Z,35.62
2022-08-10T16:17:54.422Z,35.82
2022-08-10T16:23:07.493Z,35.93
2022-08-10T16:28:23.429Z,35.62
2022-08-10T16:33:53.725Z,35.65
2022-08-10T16:38:57.504Z,35.60
2022-08-10T16:44:03.881Z,36.18
2022-08-10T16:49:07.472Z,35.88
2022-08-10T16:54:10.256Z,36.57
2022-08-10T16:59:17.868Z,36.39
2022-08-10T17:04:23.887Z,36.16
2022-08-10T17:09:30.071Z,35.42
2022-08-10T17:14:33.794Z,34.94
2022-08-10T17:19:40.889Z,34.88
2022-08-10T17:25:11.545Z,34.67
2022-08-10T17:30:16.083Z,35.17
2022-08-10T17:35:43.554Z,35.19
2022-08-10T17:41:15.323Z,35.04
2022-08-10T17:46:18.402Z,35.16
2022-08-10T17:51:21.379Z,35.15
2022-08-10T17:56:23.955Z,35.86
2022-08-10T18:01:40.242Z,36.37
2022-08-10T18:06:56.448Z,37.23
2022-08-10T18:12:02.301Z,37.65
2022-08-10T18:17:23.068Z,38.17
2022-08-10T18:22:25.428Z,39.23
2022-08-10T18:28:01.125Z,39.84
2022-08-10T18:32:55.083Z,40.64
2022-08-10T18:38:01.018Z,41.56
2022-08-10T18:44:02.911Z,42.25
2022-08-10T18:48:38.576Z,43.06
2022-08-10T18:53:47.518Z,43.73
2022-08-10T18:59:11.678Z,44.40
2022-08-10T19:04:56.474Z,45.34
2022-08-10T19:10:30.384Z,46.47
2022-08-10T19:15:42.617Z,46.77
2022-08-10T19:20:55.011Z,47.64
2022-08-10T19:26:44.757Z,47.94
2022-08-10T19:32:44.837Z,48.59
2022-08-10T19:38:16.386Z,49.16
2022-08-10T19:43:59.084Z,49.99
2022-08-10T19:49:13.646Z,51.15
2022-08-10T19:54:26.526Z,51.54
2022-08-10T20:00:19.040Z,51.88
2022-08-10T20:05:38.578Z,52.15
2022-08-10T20:10:50.282Z,52.84
2022-08-10T20:16:05.462Z,53.29
2022-08-10T20:21:17.228Z,53.91
2022-08-10T20:26:35.798Z,54.67
2022-08-10T20:31:55.760Z,55.56
2022-08-10T20:37:06.279Z,55.96
2022-08-10T20:42:34.660Z,56.33
2022-08-10T20:48:07.378Z,56.65
2022-08-10T20:53:50.238Z,57.18
2022-08-10T20:59:16.288Z,57.40
2022-08-10T21:04:54.511Z,58.12
2022-08-10T21:10:05.956Z,58.55
2022-08-10T21:15:27.471Z,59.04
2022-08-10T21:20:47.090Z,59.06
2022-08-10T21:26:09.771Z,59.28
2022-08-10T21:31:30.115Z,59.39
2022-08-10T21:36:35.083Z,59.90
2022-08-10T21:42:17.124Z,60.42
2022-08-10T21:48:30.510Z,60.76
2022-08-10T21:54:05.559Z,60.95
2022-08-10T21:59:35.259Z,61.40
2022-08-10T22:04:58.672Z,61.72
2022-08-10T22:10:22.810Z,62.18
2022-08-10T22:16:09.856Z,62.35
2022-08-10T22:22:19.915Z,62.82
2022-08-10T22:27:54.482Z,63.08
2022-08-10T22:33:33.697Z,63.39
2022-08-10T22:40:11.866Z,64.16
2022-08-10T22:45:03.739Z,64.89
2022-08-10T22:50:10.186Z,64.76
2022-08-10T22:55:37.270Z,64.72
2022-08-10T23:00:39.614Z,64.85
2022-08-10T23:06:04.115Z,65.08
2022-08-10T23:11:08.079Z,65.36
2022-08-10T23:16:39.651Z,65.66
2022-08-10T23:22:03.330Z,65.88
2022-08-10T23:27:37.656Z,66.25
2022-08-10T23:32:46.693Z,67.00
2022-08-10T23:37:49.343Z,67.41
2022-08-10T23:42:52.433Z,67.90
2022-08-10T23:48:01.578Z,68.52
2022-08-10T23:53:13.382Z,69.03
2022-08-10T23:58:31.534Z,69.09
